Date,TemperatureHighF,TemperatureAvgF,TemperatureLowF,DewpointHighF,DewpointAvgF,DewpointLowF,HumidityHigh,HumidityAvg,HumidityLow,PressureMaxIn,PressureMinIn,WindSpeedMaxMPH,WindSpeedAvgMPH,GustSpeedMaxMPH,PrecipitationSumIn
2013-1-1,46,38,32,35,30,27,89,73,58,30.28,30.17,10,2,10,0.00
2013-1-2,50,39,34,33,27,24,69,62,47,30.17,30.00,8,2,8,0.00
2013-1-3,51,42,33,46,32,23,92,69,47,30.06,29.89,26,7,26,0.11
2013-1-4,49,46,42,46,43,39,92,90,87,30.20,30.02,19,5,20,0.13
2013-1-5,50,44,39,44,39,36,92,82,72,30.06,29.96,16,3,16,0.12
2013-1-6,49,44,38,44,40,36,91,88,78,30.08,29.86,25,6,25,0.22
2013-1-7,50,49,46,48,46,43,94,91,85,30.10,29.83,24,10,25,0.88
2013-1-8,51,49,45,49,47,42,94,92,86,30.09,29.74,32,15,32,1.01
2013-1-9,49,43,36,46,38,32,92,84,69,29.88,29.66,32,8,32,1.46
2013-1-10,43,38,35,38,34,31,91,86,74,29.99,29.85,24,4,24,0.15
2013-1-11,41,33,29,30,27,24,90,78,53,30.19,29.98,9,2,9,0.00
2013-1-12,40,33,29,30,26,25,87,78,56,30.28,30.16,14,4,14,0.00
2013-1-13,40,32,26,29,26,22,87,78,63,30.33,30.27,6,2,6,0.00
2013-1-14,42,37,34,39,34,28,92,86,80,30.40,30.32,10,4,10,0.03
2013-1-15,44,38,31,40,35,28,92,89,75,30.52,30.39,14,5,14,0.01
2013-1-16,47,35,28,39,31,26,93,87,75,30.48,30.28,10,4,10,0.01
2013-1-17,53,39,31,44,34,28,90,82,64,30.28,30.10,11,4,11,0.00
2013-1-18,50,38,31,45,34,27,89,85,70,30.11,30.07,5,2,5,0.00
2013-1-19,49,38,31,44,35,28,93,87,81,30.28,30.10,6,2,6,0.00
2013-1-20,41,36,31,39,34,29,94,92,90,30.27,30.16,6,2,6,0.00
2013-1-21,48,36,29,41,32,26,92,86,74,30.18,30.00,6,2,6,0.01
2013-1-22,52,40,31,39,33,27,85,75,60,30.02,29.79,7,2,7,0.00
2013-1-23,47,44,41,45,40,35,92,85,72,30.14,29.77,25,4,25,0.79
2013-1-24,49,43,37,45,40,34,92,89,83,30.14,30.01,20,4,20,0.30
2013-1-25,48,46,40,46,43,37,94,90,84,30.03,29.89,21,6,21,0.18
2013-1-26,47,43,41,43,40,38,91,88,83,30.06,29.85,20,6,20,0.91
2013-1-27,46,42,39,42,39,36,91,88,81,30.09,29.98,22,6,22,0.58
2013-1-28,46,45,43,43,42,38,92,88,81,30.14,30.03,27,9,27,0.72
2013-1-29,47,46,45,45,44,43,94,92,90,30.36,30.13,26,10,26,0.38
2013-1-30,49,48,46,47,46,45,95,95,94,30.35,30.30,16,7,16,1.94
2013-1-31,50,46,42,47,44,40,95,91,83,30.34,30.22,14,5,14,0.04
2013-2-1,54,48,44,46,44,39,94,86,71,30.24,30.13,15,4,15,0.05
2013-2-2,50,45,36,46,40,33,90,84,77,30.20,30.09,15,3,15,0.00
2013-2-3,49,47,46,44,43,42,88,86,82,30.20,30.11,12,4,12,0.00
2013-2-4,50,47,44,45,42,40,90,85,78,30.12,29.81,23,4,23,0.00
2013-2-5,52,47,45,48,44,41,92,88,81,29.90,29.75,30,13,30,0.87
2013-2-6,50,46,41,44,42,38,90,84,72,29.93,29.67,28,10,28,0.54
2013-2-7,48,42,33,42,37,30,90,85,73,30.05,29.75,28,6,28,0.05
2013-2-8,45,38,30,40,34,27,92,87,80,30.25,30.05,12,2,12,0.02
2013-2-9,48,45,41,45,42,38,92,90,86,30.29,30.20,10,2,10,0.06
2013-2-10,48,45,43,43,40,38,93,84,71,30.33,30.26,9,3,9,0.00
2013-2-11,48,45,42,45,42,38,94,89,85,30.29,30.25,9,4,9,0.07
2013-2-12,50,48,46,47,46,45,95,94,91,30.36,30.26,16,8,16,0.25
2013-2-13,50,47,43,46,43,40,95,87,78,30.39,30.31,15,4,15,0.12
2013-2-14,52,47,43,48,44,40,93,90,86,30.43,30.38,9,3,9,0.01
2013-2-15,60,48,40,51,44,38,94,88,69,30.38,30.09,14,5,14,0.00
2013-2-16,50,46,44,46,42,37,94,87,77,30.18,30.12,21,6,21,0.18
2013-2-17,48,44,38,40,37,35,86,77,71,30.18,29.98,16,4,16,0.00
2013-2-18,49,41,37,41,37,33,89,85,72,29.98,29.58,17,5,17,0.36
2013-2-19,48,41,35,42,36,32,91,84,75,29.90,29.56,18,4,18,0.00
2013-2-20,46,42,36,42,38,33,91,88,80,29.94,29.85,25,8,25,0.23
2013-2-21,46,44,42,44,40,36,92,87,74,30.02,29.94,29,9,29,0.37
2013-2-22,48,45,40,46,41,35,93,87,71,30.01,29.73,38,14,38,1.14
2013-2-23,47,44,40,40,38,34,87,79,68,30.29,29.92,33,10,33,0.10
2013-2-24,50,45,40,43,38,29,91,77,51,30.28,29.84,26,8,26,0.30
2013-2-25,47,45,42,44,39,36,92,79,68,30.23,29.83,35,10,35,0.37
2013-2-26,50,43,37,40,37,33,88,80,63,30.22,30.07,22,6,22,0.05
2013-2-27,52,47,43,47,44,40,92,89,85,30.14,30.05,17,5,17,0.19
2013-2-28,52,50,46,50,48,44,94,93,91,30.33,30.01,23,11,23,1.06
2013-3-1,55,51,50,51,48,47,94,92,87,30.37,30.28,27,12,27,0.05
2013-3-28,57,53,50,51,48,46,88,84,80,30.11,30.02,5,1,5,0.00
2013-3-29,55,50,46,50,47,43,91,89,84,30.16,30.11,12,3,12,0.00
2013-3-30,72,54,43,52,46,40,92,77,47,30.15,29.92,12,3,12,0.00
2013-3-31,58,50,44,52,46,40,91,85,76,29.95,29.91,15,4,15,0.00
2013-4-1,56,52,49,50,48,46,90,86,77,30.11,29.95,19,8,19,0.00
2013-4-2,56,50,48,50,47,44,92,87,78,30.14,30.10,12,4,13,0.10
2013-4-3,62,52,41,52,46,38,90,82,62,30.11,29.80,5,2,5,0.00
2013-4-4,56,53,51,54,50,48,92,89,83,29.81,29.55,36,8,36,0.76
2013-4-5,52,51,50,49,48,47,93,92,90,29.83,29.68,32,14,32,1.36
2013-4-6,54,49,44,48,45,40,91,85,70,29.93,29.56,35,14,35,0.68
2013-4-7,50,46,43,48,43,39,93,89,82,29.90,29.42,31,11,31,0.88
2013-4-8,52,48,44,45,42,39,87,80,72,30.21,29.90,19,6,19,0.00
2013-4-9,55,48,41,46,42,37,89,80,69,30.24,30.11,11,4,11,0.00
2013-4-10,52,51,50,47,44,41,89,76,68,30.11,30.05,16,8,16,0.00
2013-4-24,57,52,47,46,42,39,75,69,61,30.06,30.03,17,3,17,0.00
2013-4-25,57,50,44,50,45,38,87,81,75,30.17,29.99,8,1,8,0.00
2013-4-26,56,50,45,49,45,40,90,83,76,30.24,30.14,10,2,10,0.00
2013-4-27,56,50,43,49,45,38,91,82,74,30.26,30.16,15,5,15,0.02
2013-4-28,58,52,49,51,48,45,93,84,66,30.24,30.01,24,8,24,0.23
2013-4-29,54,49,45,49,40,34,92,73,60,30.18,30.01,27,9,27,0.04
2013-4-30,52,47,42,39,37,34,75,66,55,30.39,30.16,25,7,25,0.00
2013-5-1,56,47,34,47,40,29,84,76,56,30.42,30.36,20,6,20,0.00
2013-5-2,67,51,41,49,42,36,85,73,42,30.37,30.25,23,7,23,0.00
2013-5-3,57,50,39,50,43,34,85,78,73,30.26,30.10,20,4,20,0.00
2013-5-4,82,62,44,52,45,40,89,60,25,30.10,29.87,24,6,24,0.00
2013-5-5,86,66,51,48,43,35,75,48,18,29.87,29.66,18,5,18,0.00
2013-5-6,61,56,48,51,48,42,84,76,67,29.86,29.77,16,7,16,0.00
2013-5-7,60,55,52,51,48,46,85,79,69,29.99,29.86,18,8,18,0.00
2013-5-8,60,55,52,51,48,46,83,78,71,30.12,29.99,13,4,13,0.00
2013-5-9,56,52,49,49,47,45,87,82,76,30.16,30.09,14,5,14,0.00
2013-5-10,57,52,48,50,47,45,90,84,74,30.19,30.09,11,4,11,0.00
2013-5-11,60,56,50,54,50,46,87,81,73,30.19,30.02,13,3,13,0.00
2013-5-12,63,59,56,56,54,52,89,82,74,30.09,30.01,19,7,19,0.09
2013-5-13,60,55,47,55,51,42,92,85,73,30.17,29.96,26,9,26,0.18
2013-5-14,58,52,46,50,45,42,87,77,65,30.16,30.07,10,4,10,0.00
2013-5-15,60,52,45,54,47,40,84,81,76,30.07,29.93,17,5,17,0.08
2013-5-16,63,56,52,55,51,47,89,81,69,29.93,29.86,21,5,21,0.03
2013-5-17,60,55,50,52,49,45,88,80,69,30.02,29.90,17,6,17,0.02
2013-5-18,57,54,50,52,50,46,92,86,78,30.23,30.00,13,4,13,0.28
2013-5-19,57,53,51,50,46,44,89,78,69,30.38,30.23,21,8,21,0.00
2013-5-20,58,52,49,49,45,43,85,77,71,30.31,29.89,12,4,12,0.15
2013-5-21,52,49,45,46,43,39,89,82,73,29.90,29.78,24,7,24,0.24
2013-5-22,54,49,44,49,45,39,90,87,81,29.85,29.79,16,5,17,0.57
2013-5-23,51,49,47,48,46,44,91,91,89,29.86,29.82,21,5,21,1.93
2013-5-24,58,52,47,52,48,44,92,85,74,30.00,29.83,12,4,12,0.17
2013-5-25,57,53,49,50,48,44,89,83,73,29.99,29.86,13,4,13,0.02
2013-5-26,62,55,51,53,50,47,92,83,69,29.96,29.83,23,7,23,0.05
2013-5-27,57,54,52,54,50,47,92,88,80,29.87,29.59,26,9,26,0.94
2013-5-28,58,53,50,53,49,47,92,87,75,29.86,29.66,17,7,17,0.41
2013-5-29,58,53,49,52,49,46,92,86,77,29.96,29.52,17,7,17,0.46
2013-5-30,60,54,49,53,49,45,89,83,72,30.18,29.95,15,6,15,0.08
2013-5-31,61,54,49,53,49,46,89,81,70,30.25,30.18,16,5,16,0.00
2013-6-1,62,56,49,54,49,45,89,79,65,30.18,30.02,12,4,12,0.00
2013-6-2,62,56,54,54,51,48,92,82,71,30.08,30.01,13,5,13,0.00
2013-6-3,59,55,49,52,48,44,84,79,74,30.08,30.04,13,5,13,0.00
2013-6-4,61,55,47,55,50,43,90,83,77,30.06,30.00,16,4,16,0.00
2013-6-5,54,52,51,49,48,47,86,86,86,30.02,30.01,3,1,3,0.00
2013-6-15,66,60,51,56,53,43,86,77,70,30.01,29.93,14,6,14,0.44
2013-6-16,66,61,56,55,52,50,83,74,61,30.08,29.99,12,4,12,0.00
2013-6-17,66,60,56,58,54,51,89,79,65,30.07,29.93,20,6,20,0.39
2013-6-18,64,58,52,57,52,48,90,80,69,29.93,29.89,23,6,23,0.05
2013-6-19,66,59,51,55,51,46,86,76,64,30.03,29.88,17,7,17,0.00
2013-6-20,64,59,53,54,52,48,87,77,63,30.11,29.99,12,5,12,0.06
2013-6-21,65,60,55,56,52,50,87,77,68,30.14,30.08,10,3,10,0.01
2013-6-22,68,61,50,58,53,46,89,76,65,30.09,29.81,8,2,8,0.00
2013-6-23,65,62,58,61,57,53,90,85,76,29.81,29.57,11,3,11,0.22
2013-6-24,65,59,54,59,54,52,92,84,70,29.65,29.57,21,8,21,0.40
2013-6-25,68,61,57,58,55,53,89,80,68,29.79,29.60,27,8,27,0.14
2013-6-26,66,62,58,60,57,53,90,84,75,29.99,29.78,20,6,20,0.47
2013-6-27,68,63,60,62,59,57,90,87,81,30.14,29.93,18,4,18,0.17
2013-6-28,71,64,57,63,59,54,92,85,76,30.12,30.04,15,3,15,0.00
2013-6-29,69,64,59,62,59,55,88,83,76,30.08,29.97,9,3,9,0.00
2013-6-30,70,65,57,64,59,53,90,81,70,29.97,29.91,8,2,8,0.00
2013-7-1,66,62,60,61,58,56,92,87,80,30.06,29.93,13,4,13,0.00
2013-7-2,64,61,59,58,56,55,89,84,79,30.11,30.03,15,8,15,0.00
2013-7-3,64,60,56,59,54,52,89,80,73,30.14,30.09,18,6,18,0.00
2013-7-4,65,61,58,56,54,52,84,78,73,30.11,30.04,15,7,15,0.00
2013-7-5,68,62,58,59,55,51,86,77,64,30.04,29.97,13,4,13,0.00
2013-7-6,67,61,58,56,54,52,86,78,69,29.97,29.89,11,4,11,0.00
2013-7-7,65,60,58,57,54,52,85,80,74,29.96,29.90,14,4,14,0.00
2013-7-8,65,60,56,57,54,52,89,80,74,30.05,29.96,12,4,13,0.00
2013-7-9,59,56,54,55,53,50,93,89,85,30.07,30.02,12,4,12,0.00
2013-7-10,60,56,53,52,50,48,89,82,73,30.06,30.00,12,4,12,0.00
2013-7-11,63,57,51,56,51,46,86,81,72,30.05,29.99,11,3,11,0.00
2013-7-12,64,56,50,56,51,42,86,81,71,30.09,29.98,10,3,10,0.00
2013-7-13,61,55,48,54,50,44,90,83,75,30.13,30.08,14,4,14,0.00
2013-7-14,58,54,49,53,50,45,91,86,82,30.09,30.01,12,4,12,0.00
2013-7-15,63,57,53,54,52,48,89,82,71,30.02,29.82,13,3,13,0.00
2013-7-16,70,59,50,59,53,46,88,80,63,29.93,29.71,17,5,17,0.00
2013-7-17,65,61,57,56,55,53,88,81,72,30.15,29.93,14,5,15,0.00
2013-7-18,62,58,54,55,53,50,89,82,73,30.16,30.11,13,6,13,0.00
2013-7-19,60,56,54,54,52,51,89,86,81,30.12,30.05,16,6,16,0.00
2013-7-20,55,55,54,51,51,51,88,88,88,30.06,30.05,14,9,14,0.00
2013-7-27,65,60,56,56,53,50,84,79,72,30.11,30.02,6,3,6,0.00
2013-7-28,64,59,55,56,54,51,90,83,73,30.02,29.94,8,3,8,0.00
2013-7-29,62,59,56,56,54,52,90,82,73,30.01,29.92,9,3,9,0.00
2013-7-30,66,60,58,58,55,52,86,81,74,30.10,30.01,9,3,9,0.00
2013-7-31,62,59,57,56,54,53,89,86,79,30.09,30.01,8,2,8,0.00
2013-8-1,66,60,56,58,55,54,91,85,74,30.04,29.98,14,5,14,0.02
2013-8-2,67,61,58,59,56,54,91,85,77,30.08,30.01,12,4,12,0.02
2013-8-3,63,60,56,57,56,53,91,86,81,30.06,29.99,16,5,16,0.00
2013-8-4,58,55,53,54,52,50,94,92,87,29.99,29.95,11,4,11,0.00
2013-8-5,58,54,51,53,51,49,94,90,83,30.00,29.93,10,3,10,0.00
2013-8-6,59,54,51,54,51,49,92,89,80,29.96,29.91,8,3,8,0.00
2013-8-7,62,57,52,56,53,50,93,88,79,30.00,29.91,8,2,8,0.00
2013-8-8,62,58,56,58,55,53,93,90,85,29.99,29.92,10,3,10,0.02
2013-8-9,61,57,54,57,54,51,92,90,85,29.93,29.84,6,2,6,0.00
2013-8-10,66,60,55,58,55,52,92,86,74,30.00,29.87,8,2,8,0.01
2013-8-11,64,60,56,58,56,53,91,86,79,30.00,29.96,7,2,7,0.00
2013-8-12,67,61,56,58,56,51,89,81,72,30.03,29.96,8,2,8,0.00
2013-8-13,66,59,50,58,53,47,89,82,75,30.02,29.87,10,3,10,0.00
2013-8-14,69,61,55,59,55,50,90,80,56,29.89,29.84,13,3,13,0.21
2013-8-15,61,61,60,58,58,58,91,91,90,29.86,29.85,8,2,8,0.03
2013-8-23,65,62,60,58,57,56,86,84,77,29.85,29.83,13,5,13,0.00
2013-8-24,67,62,57,60,57,53,88,82,76,29.88,29.82,10,2,10,0.00
2013-8-25,66,58,50,58,54,46,90,84,76,29.88,29.84,6,1,6,0.00
2013-8-26,69,59,52,58,54,49,91,84,57,29.85,29.80,16,2,16,0.35
2013-8-27,69,62,57,62,58,55,92,87,77,29.85,29.74,12,3,12,0.02
2013-8-28,72,64,61,64,60,58,91,86,72,29.83,29.74,12,3,12,0.09
2013-8-29,66,63,62,63,60,59,92,90,87,29.96,29.75,26,8,26,0.76
2013-8-30,65,61,56,62,58,54,92,90,85,30.08,29.96,13,4,13,0.00
2013-8-31,56,54,52,54,51,49,93,92,92,29.98,29.89,2,0,2,0.01
2013-9-6,64,63,61,61,60,58,90,89,88,30.07,30.04,11,4,11,0.00
2013-9-7,66,62,55,62,58,53,92,88,83,30.06,29.96,12,3,12,0.00
2013-9-8,64,59,54,61,56,51,92,90,86,30.05,29.98,15,4,15,0.00
2013-9-9,62,59,55,59,56,52,92,90,87,30.02,29.91,11,4,11,0.00
2013-9-10,71,61,54,63,57,52,94,86,72,29.92,29.74,13,4,13,0.00
2013-9-11,68,62,56,61,57,51,88,81,74,29.94,29.73,14,5,14,0.00
2013-9-12,66,61,58,59,56,54,88,85,78,29.95,29.91,11,3,11,0.00
2013-9-13,64,62,60,59,58,56,88,86,82,29.94,29.82,7,2,7,0.00
2013-9-14,63,61,59,59,58,56,93,89,85,29.82,29.70,11,4,11,0.00
2013-9-15,64,61,59,61,58,57,93,91,86,29.80,29.68,9,3,9,0.08
2013-9-16,67,62,58,62,58,55,93,89,82,29.92,29.80,13,4,13,0.19
2013-9-17,65,59,54,59,55,51,91,87,78,29.93,29.82,10,3,10,0.19
2013-9-18,66,59,54,60,54,50,91,85,77,30.02,29.93,9,3,10,0.02
2013-9-19,68,59,50,58,52,47,90,79,62,29.94,29.72,14,3,14,0.00
2013-9-20,66,59,53,59,54,48,90,85,78,29.72,29.59,12,4,14,0.16
2013-9-21,66,59,54,58,55,51,92,86,74,29.71,29.61,11,3,11,0.04
2013-9-22,64,58,55,59,54,52,93,89,83,29.75,29.51,34,10,34,1.39
2013-9-23,62,57,52,57,53,48,91,87,80,29.92,29.74,25,6,25,0.24
2013-9-24,60,54,50,56,50,46,92,88,78,29.90,29.78,15,5,15,1.67
2013-9-25,60,53,48,52,48,44,91,84,72,29.97,29.78,10,3,10,0.12
2013-9-26,63,54,48,55,49,44,90,83,70,30.09,29.96,10,5,10,0.00
2013-9-27,58,55,50,56,52,46,92,90,86,30.07,29.76,29,8,29,0.56
2013-9-28,61,58,54,59,56,51,93,92,90,29.77,29.36,35,16,35,2.69
2013-9-29,59,56,53,57,52,48,93,88,75,29.52,29.17,35,16,35,1.41
2013-9-30,59,56,51,53,50,46,89,81,73,29.86,29.44,35,15,35,0.37
2013-10-1,59,54,50,52,48,44,90,81,70,30.07,29.83,22,6,22,0.76
2013-10-2,55,51,46,51,47,42,90,86,80,30.09,29.96,13,3,13,0.77
2013-10-3,58,49,41,50,44,38,91,83,69,30.32,30.09,10,2,10,0.00
2013-10-4,59,50,41,51,45,38,89,83,74,30.35,30.26,3,0,3,0.00
2013-10-5,65,53,43,57,48,40,90,83,72,30.26,30.02,8,2,8,0.00
2013-10-6,69,57,47,54,48,41,90,76,37,30.02,29.89,26,9,26,0.35
2013-10-7,59,56,54,53,50,48,90,82,71,30.06,29.89,23,7,23,0.24
2013-10-8,56,54,45,50,47,40,88,80,69,30.06,29.93,25,7,25,0.15
2013-10-9,57,49,39,48,43,36,91,81,69,30.01,29.88,9,3,9,0.00
2013-10-10,57,52,48,51,47,44,90,82,72,29.99,29.85,16,5,16,0.01
2013-10-11,58,52,46,51,46,42,88,80,70,30.05,29.99,7,3,8,0.00
2013-10-12,57,51,44,50,46,40,90,84,73,30.14,29.96,16,2,16,0.13
2013-10-13,60,49,38,52,43,35,90,82,61,30.27,30.13,18,3,18,0.00
2013-10-14,65,51,39,52,43,35,89,75,52,30.30,30.24,13,1,13,0.00
2013-10-15,67,52,45,52,45,39,88,77,37,30.27,30.09,17,2,17,0.00
2013-10-16,58,51,44,53,47,40,92,86,79,30.10,30.05,6,1,6,0.00
2013-10-17,58,49,42,53,45,39,91,87,84,30.15,30.09,6,1,6,0.00
2013-10-18,70,54,45,54,47,42,89,80,48,30.11,30.04,11,1,11,0.00
2013-10-19,69,50,40,61,46,37,89,85,73,30.11,30.03,6,1,6,0.00
2013-10-20,66,49,42,62,46,40,93,90,83,30.10,30.00,6,1,6,0.00
2013-10-21,59,50,41,55,47,38,92,88,75,30.00,29.89,8,2,8,0.01
2013-10-22,57,51,44,54,48,41,93,88,78,29.95,29.89,7,2,7,0.00
2013-10-23,54,51,49,51,48,46,92,91,90,29.94,29.90,8,2,8,0.00
2013-10-24,53,51,49,50,48,47,92,91,88,30.02,29.92,7,2,7,0.01
2013-10-25,59,52,43,51,48,40,90,84,70,30.18,30.02,14,4,14,0.00
2013-10-26,55,47,39,50,44,36,94,88,81,30.18,30.08,13,4,13,0.00
2013-10-27,58,52,45,51,47,40,93,83,66,30.10,29.77,19,5,19,0.13
2013-10-28,60,48,38,45,39,35,91,73,44,29.82,29.73,16,4,16,0.00
2013-10-29,56,45,37,45,37,32,85,76,54,29.93,29.82,8,3,8,0.00
2013-10-30,58,48,39,50,42,34,83,79,73,30.04,29.93,12,6,12,0.00
2013-10-31,59,54,50,54,49,42,89,83,64,30.17,29.99,23,6,23,0.00
2013-11-1,58,52,45,54,48,43,92,88,81,30.17,29.73,11,2,11,0.09
2013-11-2,54,52,46,50,45,40,91,79,68,29.94,29.55,41,13,41,0.52
2013-11-3,52,48,44,46,42,38,89,81,71,30.02,29.92,23,6,26,0.45
2013-11-4,52,48,44,49,45,41,91,90,88,30.02,29.89,16,4,16,0.32
2013-11-5,56,51,48,52,49,45,92,90,86,30.12,29.89,25,5,25,0.12
2013-11-6,56,51,47,53,48,45,91,90,86,30.15,29.93,12,2,12,0.10
2013-11-7,56,52,49,53,49,46,92,89,83,30.07,29.73,30,12,30,1.31
2013-11-8,55,49,43,50,45,40,90,87,84,30.14,30.06,12,3,12,0.18
2013-11-9,51,46,40,48,43,38,92,89,87,30.06,29.97,4,1,4,0.01
2013-11-10,59,50,43,54,47,40,91,87,80,29.99,29.94,9,2,9,0.00
2013-11-11,62,53,43,52,46,40,92,77,60,29.99,29.86,11,2,11,0.00
2013-11-12,61,56,53,56,51,43,90,84,61,30.31,29.91,27,8,27,0.14
2013-11-13,56,51,42,53,48,40,91,90,84,30.37,30.21,11,3,11,0.04
2013-11-14,52,46,42,50,44,40,92,91,87,30.22,30.01,14,2,14,0.14
2013-11-15,51,47,41,48,44,39,92,89,78,30.01,29.46,30,10,30,1.11
2013-11-16,51,49,46,46,42,39,86,78,67,29.72,29.47,40,11,40,0.10
2013-11-17,54,50,46,51,47,42,91,89,85,29.82,29.72,26,11,26,0.89
2013-11-18,54,52,50,51,49,47,92,91,90,29.81,29.49,37,17,37,0.96
2013-11-19,54,46,37,52,40,29,92,78,55,29.92,29.55,24,8,24,0.07
2013-11-20,44,36,31,32,28,24,88,73,54,30.29,29.92,16,5,16,0.00
2013-11-21,46,37,30,30,25,22,76,63,44,30.42,30.28,15,5,15,0.00
2013-11-22,55,43,31,26,21,17,62,42,27,30.37,30.17,15,3,15,0.00
2013-11-23,61,49,39,36,27,20,51,43,30,30.17,30.03,7,2,7,0.00
2013-11-24,56,41,35,42,30,26,74,64,48,30.16,29.97,8,3,8,0.00
2013-11-25,56,42,34,41,33,28,80,70,50,30.23,30.14,12,3,12,0.00
2013-11-26,55,46,37,46,38,30,81,72,57,30.18,30.00,13,3,13,0.00
2013-11-27,58,48,40,48,41,35,85,76,68,30.00,29.86,5,2,5,0.00
2013-11-28,52,43,36,46,38,32,88,82,76,30.13,29.92,8,2,8,0.00
2013-11-29,51,45,37,47,41,34,89,87,85,30.31,30.12,7,2,7,0.01
2013-11-30,52,49,45,48,45,42,90,88,84,30.31,30.07,23,6,23,0.17
2013-12-1,54,52,47,52,49,43,92,91,85,30.08,29.89,35,18,35,1.37
2013-12-2,48,42,36,43,37,32,89,81,68,29.93,29.86,36,9,36,0.15
2013-12-3,42,35,28,34,31,25,92,85,72,30.17,29.93,12,4,12,0.09
2013-12-4,39,31,26,30,24,21,89,77,51,30.20,30.15,9,3,9,0.00
2013-12-5,38,30,24,27,22,17,78,71,54,30.18,29.98,7,2,7,0.00
2013-12-6,32,29,25,22,20,15,83,68,56,30.02,29.89,19,6,19,0.00
2013-12-7,31,25,18,15,12,9,72,58,44,30.31,30.01,13,4,13,0.00
2013-12-8,32,25,17,23,18,10,77,73,66,30.44,30.29,8,3,8,0.00
2013-12-9,38,32,23,34,27,17,89,82,75,30.44,30.37,11,4,11,0.05
2013-12-10,44,38,35,41,35,32,91,89,87,30.38,30.23,12,4,12,0.00
2013-12-11,47,37,30,43,33,27,92,88,82,30.23,30.00,6,2,6,0.00
2013-12-12,49,43,31,45,40,28,91,88,82,30.03,29.89,23,7,23,0.30
2013-12-13,52,48,44,50,46,41,92,91,90,30.30,30.02,13,4,13,0.05
2013-12-14,50,45,40,47,42,38,92,90,88,30.30,30.17,14,4,14,0.02
2013-12-15,52,49,46,50,46,44,91,90,89,30.35,30.23,14,5,14,0.03
2013-12-16,47,41,36,45,38,34,93,91,89,30.34,30.08,12,4,12,0.01
2013-12-17,45,39,32,43,37,30,93,92,91,30.09,30.01,8,2,8,0.02
2013-12-18,47,41,32,45,38,29,93,89,76,30.03,29.94,23,4,23,0.04
2013-12-19,40,34,29,34,29,26,91,84,66,30.19,30.02,8,3,8,0.00
2013-12-20,49,42,34,47,39,30,92,88,82,30.06,29.71,32,8,32,0.68
2013-12-21,49,47,45,47,45,43,93,92,91,30.18,29.84,15,4,15,0.17
2013-12-22,52,49,47,49,46,45,91,91,91,30.31,30.15,15,6,15,0.13
2013-12-23,51,47,39,48,45,37,91,91,89,30.50,30.18,23,6,23,0.32
2013-12-24,47,40,34,42,36,32,92,87,74,30.57,30.40,11,3,11,0.01
2013-12-25,46,38,32,41,35,30,92,89,79,30.41,30.29,6,2,6,0.00
2013-12-26,48,39,32,44,36,30,92,88,83,30.29,30.12,5,1,5,0.00
2013-12-27,50,42,35,47,40,32,92,90,88,30.32,30.05,14,3,14,0.07
2013-12-28,45,41,35,43,38,32,91,88,83,30.41,30.32,15,2,15,0.00
2013-12-29,46,38,33,43,35,30,92,90,85,30.33,30.13,12,3,12,0.00
2013-12-30,48,43,38,44,39,36,91,88,84,30.17,30.00,13,3,15,0.00
2013-12-31,50,46,41,46,42,38,91,88,85,30.31,30.12,11,3,11,0.01
2014-1-1,49,43,37,46,40,34,92,91,90,30.29,30.11,7,2,7,0.01
2014-1-2,56,47,41,48,43,38,91,85,69,30.12,29.90,21,6,21,0.34